Time;durP1;ratioP1;P1;durP2;ratioP2;P2;SDS_P1;SDS_P2;PMS_P1;PMS_P2;Temp;Humidity;BMP_temperature;BMP_pressure;BME280_temperature;BME280_humidity;BME280_pressure;Samples;Min_cycle;Max_cycle;Signal;HPM_P1;HPM_P2
2021/05/24 00:00:30;;;;;;;6.63;6.13;;;9.90;99.90;;;;;;5037062;28;20184;-65
2021/05/24 00:02:56;;;;;;;7.37;5.70;;;9.90;99.90;;;;;;5033782;28;20360;-65
2021/05/24 00:05:28;;;;;;;5.60;5.20;;;9.90;99.90;;;;;;5049376;28;20179;-65
2021/05/24 00:07:54;;;;;;;5.63;5.13;;;9.90;99.90;;;;;;5054505;28;20179;-65
2021/05/24 00:10:22;;;;;;;5.73;5.17;;;9.90;99.90;;;;;;5038681;28;20202;-65
2021/05/24 00:12:50;;;;;;;5.63;5.23;;;9.80;99.90;;;;;;5034584;28;20202;-65
2021/05/24 00:15:31;;;;;;;5.70;5.20;;;9.80;99.90;;;;;;5047218;28;20178;-65
2021/05/24 00:17:57;;;;;;;6.40;5.90;;;9.80;99.90;;;;;;5054293;28;20171;-65
2021/05/24 00:20:26;;;;;;;7.03;5.70;;;9.70;99.90;;;;;;5040742;28;20305;-65
2021/05/24 00:22:52;;;;;;;6.13;5.63;;;9.60;99.90;;;;;;5034328;28;20219;-65
2021/05/24 00:25:18;;;;;;;6.60;6.00;;;9.60;99.90;;;;;;5045632;28;20232;-65
2021/05/24 00:27:44;;;;;;;5.93;5.47;;;9.50;99.90;;;;;;5054179;28;20182;-65
2021/05/24 00:30:11;;;;;;;5.63;5.10;;;9.50;99.90;;;;;;5043667;28;20211;-65
2021/05/24 00:32:37;;;;;;;5.57;5.07;;;9.50;99.90;;;;;;5034226;28;20167;-65
2021/05/24 00:35:04;;;;;;;5.40;5.00;;;9.40;99.90;;;;;;5042405;28;20190;-65
2021/05/24 00:37:30;;;;;;;6.70;5.57;;;9.50;99.90;;;;;;5053896;28;20258;-65
2021/05/24 00:39:55;;;;;;;6.03;5.53;;;9.50;99.90;;;;;;5046881;28;20623;-65
2021/05/24 00:42:21;;;;;;;7.57;6.17;;;9.70;99.90;;;;;;5034049;28;20171;-65
2021/05/24 00:44:47;;;;;;;7.03;6.57;;;9.60;99.90;;;;;;5038545;28;20185;-65
2021/05/24 00:47:12;;;;;;;6.37;5.67;;;9.70;99.90;;;;;;5050269;28;20557;-65
2021/05/24 00:49:38;;;;;;;7.43;5.60;;;9.80;99.90;;;;;;5033602;28;20211;-65
2021/05/24 00:52:04;;;;;;;5.83;5.40;;;9.70;99.90;;;;;;5033762;28;20271;-65
2021/05/24 00:54:30;;;;;;;6.53;6.13;;;9.70;99.90;;;;;;5053714;28;20714;-65
2021/05/24 00:57:00;;;;;;;6.00;5.60;;;9.70;99.90;;;;;;5053848;28;20175;-65
2021/05/24 00:59:26;;;;;;;8.13;7.43;;;9.80;99.90;;;;;;5033905;28;21104;-65
2021/05/24 01:01:52;;;;;;;7.10;6.40;;;9.70;99.90;;;;;;5033434;28;20210;-65
2021/05/24 01:04:19;;;;;;;5.50;5.10;;;9.70;99.90;;;;;;5051112;28;20652;-65
2021/05/24 01:06:47;;;;;;;8.00;5.60;;;9.60;99.90;;;;;;5053471;28;20511;-65
2021/05/24 01:09:13;;;;;;;5.97;5.57;;;9.50;99.90;;;;;;5036707;28;20210;-65
2021/05/24 01:11:39;;;;;;;6.17;5.73;;;9.50;99.90;;;;;;5033097;28;20542;-65
2021/05/24 01:14:04;;;;;;;6.13;5.50;;;9.40;99.90;;;;;;5048068;28;20171;-65
2021/05/24 01:16:30;;;;;;;6.20;5.63;;;9.40;99.90;;;;;;5053358;28;20789;-65
2021/05/24 01:18:56;;;;;;;6.57;6.07;;;9.30;99.90;;;;;;5039795;28;20214;-65
2021/05/24 01:21:24;;;;;;;6.37;6.00;;;9.20;99.90;;;;;;5032852;28;20176;-65
2021/05/24 01:23:50;;;;;;;6.40;5.87;;;9.20;99.90;;;;;;5043336;28;20183;-65
2021/05/24 01:26:17;;;;;;;5.63;5.33;;;9.10;99.90;;;;;;5051813;28;20202;-65
2021/05/24 01:28:43;;;;;;;5.97;5.43;;;9.10;99.90;;;;;;5042583;28;20294;-65
2021/05/24 01:31:09;;;;;;;6.10;5.50;;;9.10;99.90;;;;;;5043011;28;20210;-65
2021/05/24 01:33:35;;;;;;;8.23;6.13;;;9.10;99.90;;;;;;5044231;28;20184;-65
2021/05/24 01:36:11;;;;;;;6.53;6.00;;;9.10;99.90;;;;;;5033097;28;20175;-65
2021/05/24 01:38:39;;;;;;;6.43;5.80;;;9.10;99.90;;;;;;5047646;28;20644;-65
2021/05/24 01:41:06;;;;;;;7.17;6.57;;;9.10;99.90;;;;;;5052505;28;20174;-65
2021/05/24 01:43:32;;;;;;;12.00;7.30;;;9.20;99.90;;;;;;5038501;28;20203;-65
2021/05/24 01:45:58;;;;;;;7.30;6.70;;;9.20;99.90;;;;;;5032876;28;20214;-65
2021/05/24 01:48:24;;;;;;;8.50;7.60;;;9.20;99.90;;;;;;5044483;28;20293;-65
2021/05/24 01:50:51;;;;;;;7.50;6.73;;;9.30;99.90;;;;;;5052383;28;20251;-65
2021/05/24 01:53:17;;;;;;;7.93;7.23;;;9.20;99.90;;;;;;5041655;28;20202;-65
2021/05/24 01:55:42;;;;;;;8.27;7.30;;;9.40;99.90;;;;;;5032570;28;20176;-65
2021/05/24 01:58:08;;;;;;;8.57;7.73;;;9.40;99.90;;;;;;5040868;28;20210;-65
2021/05/24 02:00:35;;;;;;;10.33;7.30;;;9.40;99.90;;;;;;5052084;28;20575;-65
2021/05/24 02:03:02;;;;;;;10.13;7.63;;;9.50;99.90;;;;;;5050063;28;20205;-65
2021/05/24 02:05:28;;;;;;;7.40;6.70;;;9.50;99.90;;;;;;5052234;28;20648;-65
2021/05/24 02:07:56;;;;;;;6.53;5.90;;;9.50;99.90;;;;;;5036749;28;20190;-65
2021/05/24 02:10:28;;;;;;;6.20;5.70;;;9.50;99.90;;;;;;5032067;28;20183;-65
2021/05/24 02:12:54;;;;;;;6.53;6.07;;;9.50;99.90;;;;;;5046814;28;20179;-65
2021/05/24 02:15:26;;;;;;;7.70;7.00;;;9.50;99.90;;;;;;5052089;28;20167;-65
2021/05/24 02:17:52;;;;;;;7.20;6.60;;;9.50;99.90;;;;;;5038145;28;20183;-65
2021/05/24 02:20:23;;;;;;;5.60;5.30;;;9.50;99.90;;;;;;5032226;28;20594;-65
2021/05/24 02:22:48;;;;;;;5.70;5.20;;;9.50;99.90;;;;;;5044780;28;20261;-65
2021/05/24 02:25:14;;;;;;;5.20;4.90;;;9.40;99.90;;;;;;5052014;28;20198;-65
2021/05/24 02:27:40;;;;;;;6.40;6.00;;;9.40;99.90;;;;;;5040743;28;20183;-65
2021/05/24 02:30:08;;;;;;;5.20;4.90;;;9.40;99.90;;;;;;5031738;28;20230;-65
2021/05/24 02:32:33;;;;;;;6.23;5.20;;;9.40;99.90;;;;;;5041366;28;20190;-65
2021/05/24 02:35:00;;;;;;;6.30;5.80;;;9.30;99.90;;;;;;5051937;28;20167;-65
2021/05/24 02:37:25;;;;;;;5.57;5.20;;;9.50;99.90;;;;;;5043544;28;20244;-65
2021/05/24 02:39:51;;;;;;;5.80;5.27;;;9.60;99.90;;;;;;5031530;28;20199;-65
2021/05/24 02:42:17;;;;;;;6.83;5.20;;;9.60;99.90;;;;;;5032975;28;20183;-65
2021/05/24 02:44:43;;;;;;;5.67;5.27;;;9.60;99.90;;;;;;5031712;28;20185;-65
2021/05/24 02:47:09;;;;;;;5.27;4.87;;;9.70;99.90;;;;;;5032983;28;20202;-65
2021/05/24 02:49:35;;;;;;;5.70;5.30;;;9.70;99.90;;;;;;5050931;28;20233;-65
2021/05/24 02:52:01;;;;;;;9.47;8.87;;;9.70;99.90;;;;;;5048279;28;20194;-65
2021/05/24 02:54:26;;;;;;;7.60;6.67;;;9.80;99.90;;;;;;5031650;28;20167;-66
2021/05/24 02:56:52;;;;;;;11.27;10.57;;;10.00;99.90;;;;;;5032964;28;20534;-65
2021/05/24 02:59:17;;;;;;;8.20;5.80;;;9.90;99.90;;;;;;5051347;28;20190;-65
2021/05/24 03:01:43;;;;;;;9.50;5.40;;;10.00;99.90;;;;;;5051170;28;20174;-65
2021/05/24 03:04:10;;;;;;;7.30;6.60;;;10.10;99.90;;;;;;5031112;28;20190;-65
2021/05/24 03:06:36;;;;;;;5.97;5.43;;;10.00;99.90;;;;;;5031573;28;20172;-65
2021/05/24 03:09:02;;;;;;;7.00;6.37;;;10.20;99.90;;;;;;5049218;28;20202;-65
2021/05/24 03:11:28;;;;;;;5.70;5.30;;;10.20;99.90;;;;;;5052775;28;20580;-65
2021/05/24 03:13:53;;;;;;;6.67;6.17;;;10.20;99.90;;;;;;5039185;28;20235;-65
2021/05/24 03:16:19;;;;;;;5.67;5.23;;;10.20;99.90;;;;;;5035651;28;20659;-65
2021/05/24 03:18:45;;;;;;;6.13;5.50;;;10.30;99.90;;;;;;5049875;28;20210;-65
2021/05/24 03:21:11;;;;;;;5.67;4.83;;;10.30;99.90;;;;;;5055272;28;20175;-65
2021/05/24 03:23:37;;;;;;;5.43;5.00;;;10.20;99.90;;;;;;5042152;28;20209;-65
2021/05/24 03:26:02;;;;;;;5.57;5.00;;;10.40;99.90;;;;;;5035521;28;20179;-65
2021/05/24 03:28:28;;;;;;;5.00;4.70;;;10.40;99.90;;;;;;5046157;28;20198;-65
2021/05/24 03:30:54;;;;;;;9.90;9.33;;;10.50;99.90;;;;;;5055040;28;20162;-64
2021/05/24 03:33:19;;;;;;;6.00;5.60;;;10.50;99.90;;;;;;5045577;28;20171;-65
2021/05/24 03:35:45;;;;;;;7.10;5.47;;;10.50;99.90;;;;;;5035300;28;20568;-65
2021/05/24 03:38:10;;;;;;;6.20;5.60;;;10.60;99.90;;;;;;5053518;28;20189;-65
2021/05/24 03:40:36;;;;;;;5.77;5.27;;;10.60;99.90;;;;;;5054833;28;20175;-65
2021/05/24 03:43:03;;;;;;;5.60;5.23;;;10.70;99.90;;;;;;5038132;28;20661;-65
2021/05/24 03:45:32;;;;;;;5.10;4.70;;;10.70;99.90;;;;;;5034959;28;20168;-64
2021/05/24 03:47:57;;;;;;;5.00;4.73;;;10.80;99.90;;;;;;5050293;28;20179;-65
2021/05/24 03:50:25;;;;;;;5.73;5.30;;;10.80;99.90;;;;;;5054650;28;20525;-65
2021/05/24 03:52:51;;;;;;;4.87;4.57;;;10.80;99.90;;;;;;5040592;28;20171;-65
2021/05/24 03:55:19;;;;;;;5.77;5.37;;;10.80;99.90;;;;;;5034950;28;20163;-65
2021/05/24 03:57:47;;;;;;;8.17;7.67;;;10.80;99.90;;;;;;5047391;28;20186;-65
2021/05/24 04:00:14;;;;;;;4.97;4.50;;;10.80;99.90;;;;;;5054474;28;20198;-65
2021/05/24 04:02:40;;;;;;;6.27;5.27;;;10.90;99.90;;;;;;5042121;28;20179;-64
2021/05/24 04:05:21;;;;;;;8.03;7.63;;;10.90;99.90;;;;;;5034547;28;20179;-65
2021/05/24 04:07:53;;;;;;;6.20;5.60;;;10.90;99.90;;;;;;5046469;28;20197;-65
2021/05/24 04:10:22;;;;;;;5.57;5.17;;;11.00;99.90;;;;;;5035265;28;20187;-65
2021/05/24 04:12:48;;;;;;;8.00;7.50;;;11.00;99.90;;;;;;5045872;28;20183;-65
2021/05/24 04:15:14;;;;;;;5.80;5.50;;;11.10;99.90;;;;;;5054551;28;20175;-65
2021/05/24 04:17:41;;;;;;;7.07;6.57;;;11.20;99.90;;;;;;5044230;28;20187;-65
2021/05/24 04:20:08;;;;;;;5.33;4.83;;;11.20;99.90;;;;;;5090316;22;20221;-66
2021/05/24 04:22:34;;;;;;;5.03;4.60;;;11.20;99.90;;;;;;5073388;28;20285;-67
2021/05/24 04:25:00;;;;;;;5.57;4.97;;;11.10;99.90;;;;;;5074277;28;20200;-66
2021/05/24 04:27:26;;;;;;;6.43;5.43;;;11.20;99.90;;;;;;5072455;28;20171;-66
2021/05/24 04:29:52;;;;;;;5.77;5.20;;;11.10;99.90;;;;;;5088650;28;20205;-66
2021/05/24 04:32:17;;;;;;;5.17;4.87;;;11.10;99.90;;;;;;5090072;28;20708;-66
2021/05/24 04:34:43;;;;;;;6.50;6.00;;;11.10;99.90;;;;;;5094503;28;20187;-67
2021/05/24 04:37:09;;;;;;;5.97;5.47;;;11.20;99.90;;;;;;5086929;28;20188;-66
2021/05/24 04:39:34;;;;;;;6.00;5.50;;;11.20;99.90;;;;;;5073779;28;20594;-67
2021/05/24 04:42:01;;;;;;;5.70;5.40;;;11.20;99.90;;;;;;5079180;28;20189;-66
2021/05/24 04:44:26;;;;;;;5.63;5.33;;;11.30;99.90;;;;;;5094448;28;20169;-67
2021/05/24 04:46:52;;;;;;;6.03;5.60;;;11.40;99.90;;;;;;5090308;28;20174;-66
2021/05/24 04:49:18;;;;;;;6.27;5.60;;;11.40;99.90;;;;;;5073988;28;20194;-67
2021/05/24 04:51:43;;;;;;;5.93;5.53;;;11.50;99.90;;;;;;5075309;28;20184;-67
2021/05/24 04:54:09;;;;;;;6.00;5.37;;;11.60;99.90;;;;;;5093153;28;20197;-66
2021/05/24 04:56:35;;;;;;;5.93;5.43;;;11.60;99.90;;;;;;5093608;28;20166;-66
2021/05/24 04:59:02;;;;;;;5.10;4.70;;;11.70;99.90;;;;;;5073632;28;20206;-67
2021/05/24 05:01:28;;;;;;;6.03;5.63;;;11.80;99.90;;;;;;5073305;28;20814;-67
2021/05/24 05:03:53;;;;;;;6.30;5.33;;;11.80;99.90;;;;;;5091271;28;20188;-66
2021/05/24 05:06:19;;;;;;;5.53;5.13;;;11.90;99.90;;;;;;5093870;28;20169;-65
2021/05/24 05:08:45;;;;;;;5.80;5.30;;;12.00;99.90;;;;;;5076079;28;20201;-66
2021/05/24 05:11:13;;;;;;;8.30;5.70;;;12.20;99.90;;;;;;5090285;28;20185;-65
2021/05/24 05:13:40;;;;;;;7.37;5.30;;;12.40;99.90;;;;;;5077499;28;20225;-64
2021/05/24 05:16:06;;;;;;;5.00;4.60;;;12.60;99.90;;;;;;5073504;28;20158;-66
2021/05/24 05:18:32;;;;;;;7.37;5.53;;;12.80;99.90;;;;;;5087306;28;20341;-64
2021/05/24 05:20:58;;;;;;;6.13;5.50;;;12.90;99.90;;;;;;5092291;28;20215;-65
2021/05/24 05:23:24;;;;;;;7.40;6.77;;;13.00;99.90;;;;;;5078363;28;20185;-64
2021/05/24 05:25:49;;;;;;;6.13;5.30;;;13.10;99.90;;;;;;5072478;28;20174;-65
2021/05/24 05:28:15;;;;;;;9.17;8.40;;;13.20;99.90;;;;;;5083105;28;20173;-64
2021/05/24 05:30:41;;;;;;;6.90;6.33;;;13.40;99.90;;;;;;5092950;28;20243;-64
2021/05/24 05:33:07;;;;;;;5.87;5.47;;;13.60;99.90;;;;;;5082584;28;20174;-65
2021/05/24 05:35:33;;;;;;;6.10;5.70;;;13.70;99.90;;;;;;5073001;28;20258;-65
2021/05/24 05:37:58;;;;;;;8.40;5.60;;;13.90;99.90;;;;;;5092438;28;20653;-66
2021/05/24 05:40:24;;;;;;;7.13;6.20;;;14.00;99.90;;;;;;5091956;28;20191;-64
2021/05/24 05:42:50;;;;;;;6.20;5.70;;;14.10;99.90;;;;;;5072399;28;20166;-64
2021/05/24 05:45:16;;;;;;;6.80;6.27;;;14.20;99.90;;;;;;5072152;28;20170;-64
2021/05/24 05:47:45;;;;;;;8.57;8.00;;;14.40;99.90;;;;;;5089767;28;20231;-64
2021/05/24 05:50:12;;;;;;;5.30;4.90;;;14.50;99.90;;;;;;5091666;28;20286;-65
2021/05/24 05:52:37;;;;;;;5.57;5.37;;;14.70;99.90;;;;;;5075177;28;20181;-65
2021/05/24 05:55:05;;;;;;;7.07;6.57;;;14.80;99.90;;;;;;5071813;28;20197;-65
2021/05/24 05:57:30;;;;;;;6.90;6.33;;;14.80;99.90;;;;;;5084679;28;20593;-64
2021/05/24 05:59:56;;;;;;;6.60;5.50;;;14.90;99.90;;;;;;5091556;28;20242;-63
2021/05/24 06:02:22;;;;;;;6.10;5.70;;;15.00;99.90;;;;;;5089533;28;20203;-65
2021/05/24 06:04:47;;;;;;;8.67;8.00;;;15.20;99.90;;;;;;5090526;28;20181;-65
2021/05/24 06:07:13;;;;;;;8.67;8.07;;;15.40;99.90;;;;;;5079741;28;20271;-65
2021/05/24 06:09:39;;;;;;;7.90;5.87;;;15.60;99.90;;;;;;5071213;28;20214;-64
2021/05/24 06:12:05;;;;;;;8.37;7.50;;;15.70;99.90;;;;;;5081179;28;20170;-64
2021/05/24 06:14:30;;;;;;;5.20;4.80;;;15.80;99.90;;;;;;5091582;28;20174;-63
2021/05/24 06:16:56;;;;;;;10.27;9.77;;;15.90;99.90;;;;;;5082238;28;20183;-63
2021/05/24 06:19:22;;;;;;;7.50;6.90;;;16.10;99.90;;;;;;5049949;28;607124;-64
2021/05/24 06:21:47;;;;;;;6.03;5.63;;;16.30;99.90;;;;;;5078003;28;20180;-64
2021/05/24 06:24:13;;;;;;;8.00;7.40;;;16.40;99.90;;;;;;5092307;28;20631;-64
2021/05/24 06:26:39;;;;;;;6.17;5.57;;;16.50;99.90;;;;;;5087183;28;20669;-63
2021/05/24 06:29:05;;;;;;;6.07;5.60;;;16.70;99.90;;;;;;5071846;28;20205;-64
2021/05/24 06:31:30;;;;;;;6.57;6.27;;;16.80;99.90;;;;;;5074402;28;20209;-65
2021/05/24 06:33:56;;;;;;;5.87;5.47;;;16.90;99.90;;;;;;5092084;28;20205;-65
2021/05/24 06:36:22;;;;;;;8.10;5.87;;;17.00;99.90;;;;;;5090594;28;20697;-65
2021/05/24 06:38:48;;;;;;;8.20;7.53;;;17.30;99.90;;;;;;5072108;28;20193;-64
2021/05/24 06:41:13;;;;;;;9.87;9.17;;;17.30;99.90;;;;;;5071608;28;20177;-64
2021/05/24 06:43:39;;;;;;;5.30;4.90;;;17.40;99.90;;;;;;5072425;28;20189;-64
2021/05/24 06:46:05;;;;;;;6.53;5.80;;;17.50;99.90;;;;;;5072604;28;20174;-64
2021/05/24 06:48:31;;;;;;;5.97;5.30;;;17.60;99.90;;;;;;5090123;28;20755;-65
2021/05/24 06:50:56;;;;;;;4.60;4.30;;;17.70;99.90;;;;;;5092157;28;20173;-65
2021/05/24 06:53:22;;;;;;;5.63;5.23;;;17.80;99.90;;;;;;5074207;28;20182;-66
2021/05/24 06:55:48;;;;;;;5.33;4.93;;;18.10;99.90;;;;;;5071787;28;20218;-64
2021/05/24 06:58:13;;;;;;;5.87;4.87;;;18.30;99.90;;;;;;5082104;28;20181;-64
2021/05/24 07:00:39;;;;;;;5.43;4.87;;;18.30;99.90;;;;;;5091809;28;20184;-65
2021/05/24 07:03:04;;;;;;;10.10;9.57;;;18.30;99.90;;;;;;5079249;28;20244;-64
2021/05/24 07:05:30;;;;;;;9.43;8.80;;;18.60;99.90;;;;;;5071481;28;20244;-64
2021/05/24 07:07:56;;;;;;;9.47;8.83;;;18.90;99.90;;;;;;5082229;28;20186;-63
2021/05/24 07:10:22;;;;;;;8.30;7.70;;;19.10;99.90;;;;;;5076046;28;20221;-64
2021/05/24 07:12:48;;;;;;;7.03;6.63;;;19.30;99.90;;;;;;5080665;28;20195;-65
2021/05/24 07:15:14;;;;;;;7.97;6.63;;;19.50;99.90;;;;;;5091581;28;20170;-65
2021/05/24 07:17:40;;;;;;;8.50;7.90;;;19.70;99.90;;;;;;5083637;28;20186;-63
2021/05/24 07:20:06;;;;;;;7.33;6.73;;;20.10;99.90;;;;;;5071062;28;20224;-65
2021/05/24 07:22:32;;;;;;;8.55;8.02;;;19.80;99.90;;;;;;5075920;28;20630;-63
2021/05/24 07:24:58;;;;;;;7.70;7.00;;;19.70;99.90;;;;;;5072016;28;20231;-64
2021/05/24 07:27:24;;;;;;;7.93;7.20;;;19.80;99.90;;;;;;5071467;28;20755;-63
2021/05/24 07:29:50;;;;;;;7.17;6.70;;;19.70;99.90;;;;;;5070794;28;20217;-64
2021/05/24 07:32:15;;;;;;;7.37;6.83;;;19.90;99.90;;;;;;5073596;28;20194;-64
2021/05/24 07:34:43;;;;;;;7.43;6.95;;;20.20;99.90;;;;;;5091323;28;20664;-64
2021/05/24 07:37:09;;;;;;;8.07;7.53;;;20.50;99.90;;;;;;5074349;28;20174;-65
2021/05/24 07:39:35;;;;;;;6.18;5.70;;;20.70;99.90;;;;;;5070923;28;20240;-64
2021/05/24 07:42:02;;;;;;;6.28;5.78;;;21.00;99.90;;;;;;5086047;28;20185;-65
2021/05/24 07:44:32;;;;;;;5.75;5.10;;;21.30;99.90;;;;;;5083804;28;20186;-66
2021/05/24 07:46:58;;;;;;;6.13;5.53;;;21.40;99.90;;;;;;5091383;28;20170;-66
2021/05/24 07:49:24;;;;;;;5.25;4.63;;;21.50;99.90;;;;;;5081972;28;20691;-64
2021/05/24 07:51:51;;;;;;;5.40;4.68;;;21.30;99.90;;;;;;5070749;28;20182;-66
2021/05/24 07:54:17;;;;;;;4.97;4.50;;;21.50;99.90;;;;;;5078043;28;20181;-66
2021/05/24 07:56:43;;;;;;;5.35;4.95;;;21.60;99.90;;;;;;5085550;28;20178;-65
2021/05/24 07:59:10;;;;;;;7.85;5.45;;;21.80;99.90;;;;;;5093919;28;20661;-65
2021/05/24 08:01:36;;;;;;;7.30;6.70;;;21.30;99.90;;;;;;5089896;28;20200;-64
2021/05/24 08:04:02;;;;;;;8.37;7.87;;;20.40;99.90;;;;;;5073777;28;20174;-66
2021/05/24 08:06:27;;;;;;;8.40;6.67;;;19.80;99.90;;;;;;5076953;28;20600;-64
2021/05/24 08:08:53;;;;;;;6.20;5.80;;;19.30;99.90;;;;;;5094802;28;20276;-66
2021/05/24 08:11:18;;;;;;;7.33;6.60;;;19.00;99.90;;;;;;5093715;28;20170;-66
2021/05/24 08:13:44;;;;;;;5.10;4.60;;;18.70;99.90;;;;;;5074483;28;20190;-66
2021/05/24 08:16:13;;;;;;;8.23;5.57;;;18.50;99.90;;;;;;5075159;28;20178;-65
2021/05/24 08:18:42;;;;;;;6.00;5.40;;;18.20;99.90;;;;;;5094493;28;20209;-65
2021/05/24 08:21:09;;;;;;;5.13;4.77;;;18.00;99.90;;;;;;5090289;28;20194;-65
2021/05/24 08:23:35;;;;;;;6.50;5.17;;;18.00;99.90;;;;;;5090623;28;20177;-65
2021/05/24 08:26:01;;;;;;;6.27;5.00;;;18.00;99.90;;;;;;5087979;28;20224;-65
2021/05/24 08:28:27;;;;;;;5.00;4.60;;;18.00;99.90;;;;;;5074177;28;20581;-66
2021/05/24 08:30:54;;;;;;;7.13;5.40;;;17.90;99.90;;;;;;5078377;28;20169;-65
2021/05/24 08:33:21;;;;;;;6.53;6.00;;;17.80;99.90;;;;;;5092441;28;20166;-66
2021/05/24 08:35:50;;;;;;;7.17;4.63;;;17.80;99.90;;;;;;5072777;28;20756;-66
2021/05/24 08:38:16;;;;;;;5.90;5.40;;;17.80;99.90;;;;;;5073776;28;20197;-65
2021/05/24 08:40:43;;;;;;;5.40;4.90;;;17.80;99.90;;;;;;5095541;28;20227;-66
2021/05/24 08:43:10;;;;;;;6.80;5.27;;;17.80;99.90;;;;;;5094408;28;20165;-65
2021/05/24 08:45:37;;;;;;;5.77;5.10;;;17.80;99.90;;;;;;5074460;28;20186;-65
2021/05/24 08:48:05;;;;;;;5.70;5.20;;;17.80;99.90;;;;;;5073861;28;20548;-65
2021/05/24 08:50:30;;;;;;;6.40;5.20;;;17.90;99.90;;;;;;5091272;28;20193;-65
2021/05/24 08:52:56;;;;;;;4.70;4.30;;;17.90;99.90;;;;;;5094069;28;20174;-66
2021/05/24 08:55:22;;;;;;;6.73;5.30;;;17.80;99.90;;;;;;5077688;28;20205;-65
2021/05/24 08:57:47;;;;;;;7.67;6.97;;;17.90;99.90;;;;;;5073827;28;20171;-65
2021/05/24 09:00:15;;;;;;;6.77;6.20;;;18.00;99.90;;;;;;5087288;28;20562;-65
2021/05/24 09:02:49;;;;;;;6.30;5.70;;;18.00;99.90;;;;;;5093383;28;20230;-66
2021/05/24 09:05:15;;;;;;;6.87;5.50;;;18.10;99.90;;;;;;5079999;28;20174;-66
2021/05/24 09:07:49;;;;;;;6.53;5.87;;;18.20;99.90;;;;;;5072185;28;20173;-66
2021/05/24 09:10:15;;;;;;;5.80;5.43;;;18.30;99.90;;;;;;5085981;28;20215;-67
2021/05/24 09:12:41;;;;;;;6.07;5.67;;;18.30;99.90;;;;;;5093582;28;20584;-65
2021/05/24 09:15:14;;;;;;;6.20;5.63;;;18.30;99.90;;;;;;5082278;28;20169;-66
2021/05/24 09:17:42;;;;;;;6.30;5.70;;;18.40;99.90;;;;;;5073092;28;20170;-66
2021/05/24 09:20:27;;;;;;;7.03;6.33;;;18.40;99.90;;;;;;5083386;28;20551;-66
2021/05/24 09:23:12;;;;;;;5.63;5.23;;;18.30;99.90;;;;;;5093551;28;20261;-67
2021/05/24 09:26:06;;;;;;;4.90;4.40;;;18.30;99.90;;;;;;5078704;28;20178;-66
2021/05/24 09:28:41;;;;;;;8.37;5.17;;;18.30;99.90;;;;;;5072843;28;20212;-67
2021/05/24 09:31:14;;;;;;;5.60;5.20;;;18.30;99.90;;;;;;5090056;28;20173;-66
2021/05/24 09:33:53;;;;;;;6.87;5.93;;;18.30;99.90;;;;;;5091492;28;20583;-66
2021/05/24 09:36:20;;;;;;;5.57;5.07;;;18.40;99.90;;;;;;5091277;28;20177;-66
2021/05/24 09:38:48;;;;;;;5.17;4.70;;;18.30;99.90;;;;;;5091569;28;20201;-67
2021/05/24 09:41:16;;;;;;;6.27;5.67;;;18.30;99.90;;;;;;5072656;28;20640;-67
2021/05/24 09:43:45;;;;;;;5.47;4.97;;;18.20;99.90;;;;;;5072646;28;20170;-65
2021/05/24 09:46:18;;;;;;;6.23;5.70;;;18.00;99.90;;;;;;5093289;28;20172;-66
2021/05/24 09:48:52;;;;;;;6.50;6.00;;;17.90;99.90;;;;;;5092715;28;20233;-66
2021/05/24 09:51:20;;;;;;;5.83;5.30;;;17.80;99.90;;;;;;5052661;28;20167;-66
2021/05/24 09:54:02;;;;;;;5.30;4.90;;;17.90;99.90;;;;;;5052647;28;20194;-66
2021/05/24 09:56:31;;;;;;;6.30;5.67;;;18.00;99.90;;;;;;5052486;28;20257;-65
2021/05/24 09:59:05;;;;;;;5.23;4.83;;;17.90;99.90;;;;;;5052229;28;20190;-64
2021/05/24 10:01:38;;;;;;;5.73;5.23;;;17.90;99.90;;;;;;5092380;28;20200;-65
2021/05/24 10:04:05;;;;;;;5.30;4.83;;;18.00;99.90;;;;;;5090899;28;20173;-65
2021/05/24 10:06:31;;;;;;;5.67;5.37;;;18.00;99.90;;;;;;5072025;28;20643;-65
2021/05/24 10:08:57;;;;;;;6.00;5.53;;;18.00;99.90;;;;;;5072103;28;20208;-66
2021/05/24 10:11:24;;;;;;;5.87;5.47;;;18.00;99.90;;;;;;5090682;28;20719;-65
2021/05/24 10:13:50;;;;;;;5.23;4.63;;;18.00;99.90;;;;;;5092324;28;20252;-65
2021/05/24 10:16:17;;;;;;;6.67;6.17;;;18.00;99.90;;;;;;5074838;28;20170;-65
2021/05/24 10:18:43;;;;;;;6.23;5.83;;;18.10;99.90;;;;;;5071914;28;20198;-64
2021/05/24 10:21:10;;;;;;;6.07;5.43;;;18.00;99.90;;;;;;5087380;28;20689;-64
2021/05/24 10:23:36;;;;;;;4.63;4.30;;;18.10;99.90;;;;;;5092087;28;20169;-64
2021/05/24 10:26:04;;;;;;;5.80;4.63;;;18.00;99.90;;;;;;5077925;28;20189;-65
2021/05/24 10:28:31;;;;;;;6.50;6.07;;;17.90;99.90;;;;;;5071867;28;20202;-65
2021/05/24 10:30:58;;;;;;;5.33;5.03;;;17.90;99.90;;;;;;5084084;28;20181;-64
2021/05/24 10:33:41;;;;;;;6.07;5.60;;;17.80;99.90;;;;;;5092152;28;20161;-64
2021/05/24 10:36:21;;;;;;;8.43;5.70;;;17.70;99.90;;;;;;5078605;28;20177;-63
2021/05/24 10:39:05;;;;;;;13.10;5.40;;;17.70;99.90;;;;;;5070416;28;20208;-64
2021/05/24 10:41:58;;;;;;;5.20;4.87;;;17.80;99.90;;;;;;5087302;28;20222;-64
2021/05/24 10:44:39;;;;;;;5.40;5.00;;;17.90;99.90;;;;;;5091928;28;20252;-62
2021/05/24 10:47:25;;;;;;;4.93;4.60;;;18.00;99.90;;;;;;5091496;28;20184;-63
2021/05/24 10:50:04;;;;;;;5.17;4.80;;;18.00;99.90;;;;;;5090559;28;20273;-64
2021/05/24 10:52:38;;;;;;;5.23;4.93;;;18.20;99.90;;;;;;5071448;28;20264;-62
2021/05/24 10:55:25;;;;;;;5.53;5.10;;;18.30;99.90;;;;;;5073387;28;20166;-62
2021/05/24 10:58:15;;;;;;;5.37;4.97;;;18.30;99.90;;;;;;5091513;28;20191;-64
2021/05/24 11:01:01;;;;;;;5.13;4.80;;;18.40;99.90;;;;;;5067194;28;20224;-64
2021/05/24 11:03:27;;;;;;;5.47;5.10;;;18.40;99.90;;;;;;5071592;28;20177;-65
2021/05/24 11:06:13;;;;;;;5.93;5.40;;;18.20;99.90;;;;;;5089785;28;20586;-62
2021/05/24 11:08:42;;;;;;;5.03;4.57;;;18.00;99.90;;;;;;5072925;28;20220;-65
2021/05/24 11:11:24;;;;;;;4.83;4.63;;;18.00;99.90;;;;;;5071344;28;20174;-62
2021/05/24 11:14:04;;;;;;;5.60;5.20;;;17.90;99.90;;;;;;5090024;28;20176;-64
2021/05/24 11:16:33;;;;;;;6.90;6.50;;;18.00;99.90;;;;;;5091696;28;20231;-63
2021/05/24 11:19:16;;;;;;;4.57;4.37;;;17.90;99.90;;;;;;5070295;28;20304;-61
2021/05/24 11:21:49;;;;;;;4.60;4.20;;;17.80;99.90;;;;;;5070972;28;20185;-62
2021/05/24 11:27:12;;;;;;;4.77;4.57;;;17.40;99.90;;;;;;5054504;28;20175;-65
2021/05/24 11:29:42;;;;;;;5.33;4.87;;;17.20;99.90;;;;;;5091228;28;20208;-63
2021/05/24 11:32:20;;;;;;;5.10;4.80;;;17.20;99.90;;;;;;5092242;28;20169;-64
2021/05/24 11:34:46;;;;;;;9.60;9.10;;;16.80;99.90;;;;;;5095451;28;20172;-64
2021/05/24 11:37:12;;;;;;;6.40;6.10;;;16.30;99.90;;;;;;5089419;28;20556;-64
2021/05/24 11:39:46;;;;;;;7.57;7.20;;;15.80;99.90;;;;;;5074826;28;20208;-65
2021/05/24 11:42:22;;;;;;;7.23;6.83;;;15.40;99.90;;;;;;5078929;28;20259;-64
2021/05/24 11:44:49;;;;;;;7.77;7.37;;;15.10;99.90;;;;;;5095326;28;20181;-64
2021/05/24 11:47:19;;;;;;;5.87;5.47;;;14.90;99.90;;;;;;5091354;28;20170;-61
2021/05/24 11:49:51;;;;;;;5.43;5.13;;;14.60;99.90;;;;;;5074515;28;20206;-64
2021/05/24 11:52:22;;;;;;;5.53;5.23;;;14.50;99.90;;;;;;5078223;28;20541;-62
2021/05/24 11:54:49;;;;;;;6.73;6.20;;;14.40;99.90;;;;;;5095175;28;20794;-63
2021/05/24 11:57:19;;;;;;;8.27;7.77;;;14.40;99.90;;;;;;5092226;28;20201;-64
2021/05/24 11:59:46;;;;;;;5.27;4.93;;;14.40;99.90;;;;;;5074407;28;20194;-64
2021/05/24 12:02:13;;;;;;;5.33;5.13;;;14.30;99.90;;;;;;5074975;28;20537;-64
2021/05/24 12:04:41;;;;;;;7.20;6.80;;;14.20;99.90;;;;;;5094012;28;20177;-65
2021/05/24 12:07:12;;;;;;;5.60;5.40;;;14.10;99.90;;;;;;5094300;28;20254;-64
2021/05/24 12:09:43;;;;;;;5.57;5.37;;;14.00;99.90;;;;;;5074312;28;20293;-65
2021/05/24 12:12:29;;;;;;;5.97;5.57;;;13.90;99.90;;;;;;5074530;28;20162;-66
2021/05/24 12:14:56;;;;;;;4.37;4.17;;;13.80;99.90;;;;;;5093607;28;20198;-64
2021/05/24 12:17:27;;;;;;;5.10;4.80;;;13.80;99.90;;;;;;5093037;28;20172;-66
2021/05/24 12:19:54;;;;;;;5.43;5.23;;;13.90;99.90;;;;;;5073868;28;20213;-65
2021/05/24 12:22:23;;;;;;;6.03;5.27;;;14.00;99.90;;;;;;5074765;28;20173;-65
2021/05/24 12:24:49;;;;;;;11.23;10.73;;;14.10;99.90;;;;;;5094632;28;20227;-64
2021/05/24 12:27:18;;;;;;;5.73;5.43;;;14.20;99.90;;;;;;5083426;28;20186;-65
2021/05/24 12:30:17;;;;;;;5.40;5.10;;;14.30;99.90;;;;;;5073791;28;20622;-67
2021/05/24 12:32:54;;;;;;;5.83;5.57;;;14.50;99.90;;;;;;5088033;28;20262;-65
2021/05/24 12:35:37;;;;;;;4.17;3.97;;;14.90;99.90;;;;;;5094555;28;20161;-64
2021/05/24 12:38:19;;;;;;;5.93;5.53;;;15.10;99.90;;;;;;5077765;28;20651;-65
2021/05/24 12:40:49;;;;;;;4.70;4.50;;;15.30;99.90;;;;;;5073717;28;20170;-64
2021/05/24 12:43:15;;;;;;;7.27;6.90;;;15.50;99.90;;;;;;5091343;28;20188;-64
2021/05/24 12:45:41;;;;;;;8.17;7.77;;;15.40;99.90;;;;;;5093943;28;20631;-65
2021/05/24 12:48:14;;;;;;;6.23;5.93;;;15.40;99.90;;;;;;5078218;28;20257;-65
2021/05/24 12:50:42;;;;;;;4.77;4.57;;;15.40;99.90;;;;;;5073558;28;20178;-65
2021/05/24 12:53:09;;;;;;;9.17;8.77;;;15.30;99.90;;;;;;5089169;28;20192;-65
2021/05/24 12:55:35;;;;;;;8.90;8.50;;;15.40;99.90;;;;;;5093859;28;20245;-64